sensor_id;sensor_type;location;lat;lon;timestamp;P1;durP1;ratioP1;P2;durP2;ratioP2
82032;SDS011;71595;52.180;4.512;2023-12-14T00:00:17;8.88;;;4.90;;
82032;SDS011;71595;52.180;4.512;2023-12-14T00:05:08;7.33;;;4.00;;
82032;SDS011;71595;52.180;4.512;2023-12-14T00:07:33;6.63;;;4.22;;
82032;SDS011;71595;52.180;4.512;2023-12-14T00:09:59;7.75;;;4.40;;
82032;SDS011;71595;52.180;4.512;2023-12-14T00:12:24;8.85;;;4.50;;
82032;SDS011;71595;52.180;4.512;2023-12-14T00:14:50;6.63;;;4.28;;
82032;SDS011;71595;52.180;4.512;2023-12-14T00:19:41;8.70;;;3.88;;
82032;SDS011;71595;52.180;4.512;2023-12-14T00:22:07;8.38;;;4.35;;
82032;SDS011;71595;52.180;4.512;2023-12-14T00:26:58;8.90;;;4.30;;
82032;SDS011;71595;52.180;4.512;2023-12-14T00:29:23;9.75;;;4.75;;
82032;SDS011;71595;52.180;4.512;2023-12-14T00:31:49;8.07;;;4.55;;
82032;SDS011;71595;52.180;4.512;2023-12-14T00:34:14;9.30;;;4.53;;
82032;SDS011;71595;52.180;4.512;2023-12-14T00:36:39;8.82;;;5.47;;
82032;SDS011;71595;52.180;4.512;2023-12-14T00:39:05;10.18;;;5.07;;
82032;SDS011;71595;52.180;4.512;2023-12-14T00:41:30;13.25;;;5.95;;
82032;SDS011;71595;52.180;4.512;2023-12-14T00:46:21;10.20;;;5.23;;
82032;SDS011;71595;52.180;4.512;2023-12-14T00:48:46;12.60;;;5.75;;
82032;SDS011;71595;52.180;4.512;2023-12-14T00:51:11;10.27;;;5.50;;
82032;SDS011;71595;52.180;4.512;2023-12-14T00:53:37;12.60;;;6.32;;
82032;SDS011;71595;52.180;4.512;2023-12-14T00:56:02;14.23;;;6.18;;
82032;SDS011;71595;52.180;4.512;2023-12-14T00:58:28;14.02;;;5.75;;
82032;SDS011;71595;52.180;4.512;2023-12-14T01:00:53;15.38;;;6.25;;
82032;SDS011;71595;52.180;4.512;2023-12-14T01:03:19;10.40;;;5.07;;
82032;SDS011;71595;52.180;4.512;2023-12-14T01:05:45;11.77;;;5.68;;
82032;SDS011;71595;52.180;4.512;2023-12-14T01:10:36;11.37;;;5.50;;
82032;SDS011;71595;52.180;4.512;2023-12-14T01:13:01;12.75;;;5.45;;
82032;SDS011;71595;52.180;4.512;2023-12-14T01:15:27;9.15;;;4.82;;
82032;SDS011;71595;52.180;4.512;2023-12-14T01:17:52;9.70;;;5.22;;
82032;SDS011;71595;52.180;4.512;2023-12-14T01:20:17;12.13;;;6.03;;
82032;SDS011;71595;52.180;4.512;2023-12-14T01:22:43;13.10;;;5.65;;
82032;SDS011;71595;52.180;4.512;2023-12-14T01:25:08;11.82;;;5.60;;
82032;SDS011;71595;52.180;4.512;2023-12-14T01:27:33;11.98;;;5.68;;
82032;SDS011;71595;52.180;4.512;2023-12-14T01:29:59;13.00;;;5.90;;
82032;SDS011;71595;52.180;4.512;2023-12-14T01:32:24;9.77;;;4.82;;
82032;SDS011;71595;52.180;4.512;2023-12-14T01:34:49;12.60;;;5.57;;
82032;SDS011;71595;52.180;4.512;2023-12-14T01:37:15;10.15;;;5.00;;
82032;SDS011;71595;52.180;4.512;2023-12-14T01:39:40;14.52;;;5.40;;
82032;SDS011;71595;52.180;4.512;2023-12-14T01:42:05;11.57;;;5.68;;
82032;SDS011;71595;52.180;4.512;2023-12-14T01:44:31;12.05;;;5.50;;
82032;SDS011;71595;52.180;4.512;2023-12-14T01:46:56;10.10;;;4.93;;
82032;SDS011;71595;52.180;4.512;2023-12-14T01:49:22;13.23;;;4.88;;
82032;SDS011;71595;52.180;4.512;2023-12-14T01:54:12;11.87;;;5.87;;
82032;SDS011;71595;52.180;4.512;2023-12-14T01:56:37;12.15;;;5.22;;
82032;SDS011;71595;52.180;4.512;2023-12-14T01:59:03;9.82;;;5.13;;
82032;SDS011;71595;52.180;4.512;2023-12-14T02:01:33;10.60;;;4.90;;
82032;SDS011;71595;52.180;4.512;2023-12-14T02:04:04;9.13;;;4.28;;
82032;SDS011;71595;52.180;4.512;2023-12-14T02:06:31;10.95;;;5.30;;
82032;SDS011;71595;52.180;4.512;2023-12-14T02:11:22;13.30;;;5.13;;
82032;SDS011;71595;52.180;4.512;2023-12-14T02:13:47;11.25;;;4.82;;
82032;SDS011;71595;52.180;4.512;2023-12-14T02:16:13;9.38;;;5.13;;
82032;SDS011;71595;52.180;4.512;2023-12-14T02:18:38;10.93;;;5.18;;
82032;SDS011;71595;52.180;4.512;2023-12-14T02:21:03;10.68;;;4.70;;
82032;SDS011;71595;52.180;4.512;2023-12-14T02:23:29;7.72;;;4.47;;
82032;SDS011;71595;52.180;4.512;2023-12-14T02:25:55;10.65;;;5.30;;
82032;SDS011;71595;52.180;4.512;2023-12-14T02:28:20;7.53;;;4.72;;
82032;SDS011;71595;52.180;4.512;2023-12-14T02:30:46;11.32;;;4.65;;
82032;SDS011;71595;52.180;4.512;2023-12-14T02:33:11;11.73;;;4.28;;
82032;SDS011;71595;52.180;4.512;2023-12-14T02:35:36;11.27;;;5.07;;
82032;SDS011;71595;52.180;4.512;2023-12-14T02:38:02;11.50;;;4.70;;
82032;SDS011;71595;52.180;4.512;2023-12-14T02:40:27;11.20;;;4.47;;
82032;SDS011;71595;52.180;4.512;2023-12-14T02:45:18;11.00;;;4.63;;
82032;SDS011;71595;52.180;4.512;2023-12-14T02:47:43;13.15;;;4.05;;
82032;SDS011;71595;52.180;4.512;2023-12-14T02:52:34;10.45;;;4.03;;
82032;SDS011;71595;52.180;4.512;2023-12-14T02:57:24;9.35;;;3.88;;
82032;SDS011;71595;52.180;4.512;2023-12-14T03:02:16;8.27;;;3.90;;
82032;SDS011;71595;52.180;4.512;2023-12-14T03:07:06;9.40;;;3.80;;
82032;SDS011;71595;52.180;4.512;2023-12-14T03:09:32;11.90;;;4.40;;
82032;SDS011;71595;52.180;4.512;2023-12-14T03:12:02;8.10;;;3.97;;
82032;SDS011;71595;52.180;4.512;2023-12-14T03:14:32;10.43;;;4.15;;
82032;SDS011;71595;52.180;4.512;2023-12-14T03:16:58;8.73;;;3.92;;
82032;SDS011;71595;52.180;4.512;2023-12-14T03:21:49;6.13;;;3.30;;
82032;SDS011;71595;52.180;4.512;2023-12-14T03:24:14;8.85;;;3.50;;
82032;SDS011;71595;52.180;4.512;2023-12-14T03:26:40;6.80;;;3.22;;
82032;SDS011;71595;52.180;4.512;2023-12-14T03:29:05;8.05;;;3.40;;
82032;SDS011;71595;52.180;4.512;2023-12-14T03:31:32;7.05;;;3.38;;
82032;SDS011;71595;52.180;4.512;2023-12-14T03:36:23;9.10;;;3.80;;
82032;SDS011;71595;52.180;4.512;2023-12-14T03:38:51;5.75;;;3.17;;
82032;SDS011;71595;52.180;4.512;2023-12-14T03:43:42;6.45;;;3.05;;
82032;SDS011;71595;52.180;4.512;2023-12-14T03:46:07;5.55;;;3.13;;
82032;SDS011;71595;52.180;4.512;2023-12-14T03:48:33;7.28;;;2.90;;
82032;SDS011;71595;52.180;4.512;2023-12-14T03:51:01;6.85;;;3.28;;
82032;SDS011;71595;52.180;4.512;2023-12-14T03:53:30;7.00;;;2.75;;
82032;SDS011;71595;52.180;4.512;2023-12-14T03:55:57;5.57;;;2.95;;
82032;SDS011;71595;52.180;4.512;2023-12-14T03:58:23;5.07;;;2.58;;
82032;SDS011;71595;52.180;4.512;2023-12-14T04:00:48;6.47;;;3.00;;
82032;SDS011;71595;52.180;4.512;2023-12-14T04:03:14;7.32;;;2.50;;
82032;SDS011;71595;52.180;4.512;2023-12-14T04:05:39;4.75;;;2.67;;
82032;SDS011;71595;52.180;4.512;2023-12-14T04:10:30;5.93;;;2.47;;
82032;SDS011;71595;52.180;4.512;2023-12-14T04:12:55;7.18;;;2.47;;
82032;SDS011;71595;52.180;4.512;2023-12-14T04:15:21;5.25;;;2.25;;
82032;SDS011;71595;52.180;4.512;2023-12-14T04:17:46;4.90;;;2.47;;
82032;SDS011;71595;52.180;4.512;2023-12-14T04:22:38;4.85;;;2.10;;
82032;SDS011;71595;52.180;4.512;2023-12-14T04:25:03;4.70;;;2.38;;
82032;SDS011;71595;52.180;4.512;2023-12-14T04:27:29;4.00;;;2.38;;
82032;SDS011;71595;52.180;4.512;2023-12-14T04:29:55;6.93;;;2.28;;
82032;SDS011;71595;52.180;4.512;2023-12-14T04:32:20;7.65;;;2.65;;
82032;SDS011;71595;52.180;4.512;2023-12-14T04:37:11;6.80;;;2.20;;
82032;SDS011;71595;52.180;4.512;2023-12-14T04:39:37;5.70;;;2.15;;
82032;SDS011;71595;52.180;4.512;2023-12-14T04:42:02;7.00;;;2.28;;
82032;SDS011;71595;52.180;4.512;2023-12-14T04:44:28;8.10;;;2.50;;
82032;SDS011;71595;52.180;4.512;2023-12-14T04:46:53;4.70;;;2.00;;
82032;SDS011;71595;52.180;4.512;2023-12-14T04:49:19;4.75;;;2.40;;
82032;SDS011;71595;52.180;4.512;2023-12-14T04:51:44;4.63;;;2.25;;
82032;SDS011;71595;52.180;4.512;2023-12-14T04:56:35;6.00;;;2.33;;
82032;SDS011;71595;52.180;4.512;2023-12-14T04:59:00;5.15;;;3.17;;
82032;SDS011;71595;52.180;4.512;2023-12-14T05:01:26;5.40;;;2.17;;
82032;SDS011;71595;52.180;4.512;2023-12-14T05:03:54;4.55;;;2.15;;
82032;SDS011;71595;52.180;4.512;2023-12-14T05:06:20;5.43;;;2.88;;
82032;SDS011;71595;52.180;4.512;2023-12-14T05:08:46;4.30;;;2.28;;
82032;SDS011;71595;52.180;4.512;2023-12-14T05:13:40;3.78;;;2.13;;
82032;SDS011;71595;52.180;4.512;2023-12-14T05:18:31;5.30;;;2.20;;
82032;SDS011;71595;52.180;4.512;2023-12-14T05:20:56;4.43;;;2.22;;
82032;SDS011;71595;52.180;4.512;2023-12-14T05:25:48;5.75;;;2.72;;
82032;SDS011;71595;52.180;4.512;2023-12-14T05:28:14;6.88;;;2.55;;
82032;SDS011;71595;52.180;4.512;2023-12-14T05:30:39;5.25;;;2.38;;
82032;SDS011;71595;52.180;4.512;2023-12-14T05:35:30;3.80;;;2.20;;
82032;SDS011;71595;52.180;4.512;2023-12-14T05:37:55;6.28;;;2.33;;
82032;SDS011;71595;52.180;4.512;2023-12-14T05:40:21;5.22;;;2.78;;
82032;SDS011;71595;52.180;4.512;2023-12-14T05:42:46;5.50;;;2.53;;
82032;SDS011;71595;52.180;4.512;2023-12-14T05:45:12;8.50;;;2.80;;
82032;SDS011;71595;52.180;4.512;2023-12-14T05:47:37;5.43;;;2.45;;
82032;SDS011;71595;52.180;4.512;2023-12-14T05:50:03;6.25;;;2.20;;
82032;SDS011;71595;52.180;4.512;2023-12-14T05:52:30;5.95;;;2.60;;
82032;SDS011;71595;52.180;4.512;2023-12-14T05:57:21;4.45;;;2.40;;
82032;SDS011;71595;52.180;4.512;2023-12-14T05:59:46;5.78;;;2.63;;
82032;SDS011;71595;52.180;4.512;2023-12-14T06:02:11;5.18;;;2.70;;
82032;SDS011;71595;52.180;4.512;2023-12-14T06:04:37;7.47;;;3.13;;
82032;SDS011;71595;52.180;4.512;2023-12-14T06:07:02;7.78;;;3.28;;
82032;SDS011;71595;52.180;4.512;2023-12-14T06:09:28;8.27;;;2.50;;
82032;SDS011;71595;52.180;4.512;2023-12-14T06:12:03;5.30;;;2.90;;
82032;SDS011;71595;52.180;4.512;2023-12-14T06:14:29;7.18;;;3.13;;
82032;SDS011;71595;52.180;4.512;2023-12-14T06:16:54;8.10;;;3.08;;
82032;SDS011;71595;52.180;4.512;2023-12-14T06:19:20;5.63;;;3.20;;
82032;SDS011;71595;52.180;4.512;2023-12-14T06:21:46;5.25;;;3.05;;
82032;SDS011;71595;52.180;4.512;2023-12-14T06:24:11;7.03;;;2.95;;
82032;SDS011;71595;52.180;4.512;2023-12-14T06:26:40;5.38;;;3.05;;
82032;SDS011;71595;52.180;4.512;2023-12-14T06:29:07;4.68;;;2.80;;
82032;SDS011;71595;52.180;4.512;2023-12-14T06:31:32;5.80;;;2.97;;
82032;SDS011;71595;52.180;4.512;2023-12-14T06:33:57;6.88;;;3.08;;
82032;SDS011;71595;52.180;4.512;2023-12-14T06:36:25;6.75;;;2.90;;
82032;SDS011;71595;52.180;4.512;2023-12-14T06:38:54;7.70;;;3.13;;
82032;SDS011;71595;52.180;4.512;2023-12-14T06:41:23;7.22;;;2.97;;
82032;SDS011;71595;52.180;4.512;2023-12-14T06:43:49;5.00;;;3.13;;
82032;SDS011;71595;52.180;4.512;2023-12-14T06:46:15;7.55;;;2.80;;
82032;SDS011;71595;52.180;4.512;2023-12-14T06:48:41;5.80;;;2.97;;
82032;SDS011;71595;52.180;4.512;2023-12-14T06:51:07;8.07;;;3.22;;
82032;SDS011;71595;52.180;4.512;2023-12-14T06:53:33;7.25;;;3.17;;
82032;SDS011;71595;52.180;4.512;2023-12-14T06:55:59;8.98;;;4.28;;
82032;SDS011;71595;52.180;4.512;2023-12-14T06:58:24;7.43;;;3.28;;
82032;SDS011;71595;52.180;4.512;2023-12-14T07:00:50;7.43;;;3.38;;
82032;SDS011;71595;52.180;4.512;2023-12-14T07:03:15;6.80;;;3.22;;
82032;SDS011;71595;52.180;4.512;2023-12-14T07:05:41;5.70;;;3.10;;
82032;SDS011;71595;52.180;4.512;2023-12-14T07:08:06;6.40;;;3.38;;
82032;SDS011;71595;52.180;4.512;2023-12-14T07:10:32;8.45;;;3.45;;
82032;SDS011;71595;52.180;4.512;2023-12-14T07:12:57;8.45;;;3.42;;
82032;SDS011;71595;52.180;4.512;2023-12-14T07:15:22;7.18;;;3.67;;
82032;SDS011;71595;52.180;4.512;2023-12-14T07:17:48;6.53;;;3.50;;
82032;SDS011;71595;52.180;4.512;2023-12-14T07:20:14;7.05;;;3.65;;
82032;SDS011;71595;52.180;4.512;2023-12-14T07:22:39;6.78;;;4.05;;
82032;SDS011;71595;52.180;4.512;2023-12-14T07:25:04;8.07;;;4.32;;
82032;SDS011;71595;52.180;4.512;2023-12-14T07:27:30;6.60;;;3.30;;
82032;SDS011;71595;52.180;4.512;2023-12-14T07:29:55;7.32;;;3.20;;
82032;SDS011;71595;52.180;4.512;2023-12-14T07:32:21;4.93;;;3.10;;
82032;SDS011;71595;52.180;4.512;2023-12-14T07:34:46;7.22;;;3.35;;
82032;SDS011;71595;52.180;4.512;2023-12-14T07:40:06;6.57;;;3.17;;
82032;SDS011;71595;52.180;4.512;2023-12-14T07:42:31;7.68;;;3.53;;
82032;SDS011;71595;52.180;4.512;2023-12-14T07:44:57;10.88;;;3.67;;
82032;SDS011;71595;52.180;4.512;2023-12-14T07:47:22;5.85;;;3.30;;
82032;SDS011;71595;52.180;4.512;2023-12-14T07:49:48;7.03;;;3.70;;
82032;SDS011;71595;52.180;4.512;2023-12-14T07:52:13;6.10;;;3.22;;
82032;SDS011;71595;52.180;4.512;2023-12-14T07:54:39;6.72;;;3.45;;
82032;SDS011;71595;52.180;4.512;2023-12-14T07:57:04;5.13;;;3.20;;
82032;SDS011;71595;52.180;4.512;2023-12-14T07:59:30;5.50;;;3.58;;
82032;SDS011;71595;52.180;4.512;2023-12-14T08:01:55;6.13;;;3.17;;
82032;SDS011;71595;52.180;4.512;2023-12-14T08:04:20;8.05;;;3.88;;
82032;SDS011;71595;52.180;4.512;2023-12-14T08:06:46;5.85;;;3.47;;
82032;SDS011;71595;52.180;4.512;2023-12-14T08:09:11;5.57;;;3.28;;
82032;SDS011;71595;52.180;4.512;2023-12-14T08:11:36;7.93;;;3.97;;
82032;SDS011;71595;52.180;4.512;2023-12-14T08:14:02;8.02;;;3.97;;
82032;SDS011;71595;52.180;4.512;2023-12-14T08:16:28;11.35;;;5.63;;
82032;SDS011;71595;52.180;4.512;2023-12-14T08:18:53;11.40;;;5.82;;
82032;SDS011;71595;52.180;4.512;2023-12-14T08:21:19;9.45;;;3.80;;
82032;SDS011;71595;52.180;4.512;2023-12-14T08:23:44;9.55;;;4.50;;
82032;SDS011;71595;52.180;4.512;2023-12-14T08:26:10;7.70;;;4.20;;
82032;SDS011;71595;52.180;4.512;2023-12-14T08:28:37;10.23;;;4.00;;
82032;SDS011;71595;52.180;4.512;2023-12-14T08:31:06;6.75;;;3.72;;
82032;SDS011;71595;52.180;4.512;2023-12-14T08:33:31;8.65;;;4.25;;
82032;SDS011;71595;52.180;4.512;2023-12-14T08:35:57;5.97;;;3.50;;
82032;SDS011;71595;52.180;4.512;2023-12-14T08:38:22;7.63;;;3.60;;
82032;SDS011;71595;52.180;4.512;2023-12-14T08:40:48;6.07;;;3.60;;
82032;SDS011;71595;52.180;4.512;2023-12-14T08:43:14;8.63;;;4.00;;
82032;SDS011;71595;52.180;4.512;2023-12-14T08:45:39;6.70;;;4.38;;
82032;SDS011;71595;52.180;4.512;2023-12-14T08:48:05;7.15;;;3.90;;
82032;SDS011;71595;52.180;4.512;2023-12-14T08:50:30;9.20;;;4.43;;
82032;SDS011;71595;52.180;4.512;2023-12-14T08:52:56;8.85;;;3.92;;
82032;SDS011;71595;52.180;4.512;2023-12-14T08:55:23;7.85;;;4.10;;
82032;SDS011;71595;52.180;4.512;2023-12-14T08:57:49;8.00;;;4.40;;
82032;SDS011;71595;52.180;4.512;2023-12-14T09:02:43;7.18;;;4.20;;
82032;SDS011;71595;52.180;4.512;2023-12-14T09:05:11;6.82;;;3.42;;
82032;SDS011;71595;52.180;4.512;2023-12-14T09:07:38;7.32;;;3.53;;
82032;SDS011;71595;52.180;4.512;2023-12-14T09:10:03;5.90;;;3.13;;
82032;SDS011;71595;52.180;4.512;2023-12-14T09:12:29;7.40;;;2.78;;
82032;SDS011;71595;52.180;4.512;2023-12-14T09:14:55;7.35;;;3.35;;
82032;SDS011;71595;52.180;4.512;2023-12-14T09:17:20;7.03;;;3.28;;
82032;SDS011;71595;52.180;4.512;2023-12-14T09:19:45;8.35;;;3.40;;
82032;SDS011;71595;52.180;4.512;2023-12-14T09:22:11;6.70;;;3.60;;
82032;SDS011;71595;52.180;4.512;2023-12-14T09:24:36;6.10;;;3.45;;
82032;SDS011;71595;52.180;4.512;2023-12-14T09:27:02;6.75;;;3.40;;
82032;SDS011;71595;52.180;4.512;2023-12-14T09:29:27;6.05;;;3.65;;
82032;SDS011;71595;52.180;4.512;2023-12-14T09:31:52;6.90;;;3.45;;
82032;SDS011;71595;52.180;4.512;2023-12-14T09:34:18;7.97;;;3.60;;
82032;SDS011;71595;52.180;4.512;2023-12-14T09:36:43;7.93;;;3.92;;
82032;SDS011;71595;52.180;4.512;2023-12-14T09:39:08;8.18;;;4.45;;
82032;SDS011;71595;52.180;4.512;2023-12-14T09:41:36;9.30;;;4.10;;
82032;SDS011;71595;52.180;4.512;2023-12-14T09:44:04;7.68;;;3.63;;
82032;SDS011;71595;52.180;4.512;2023-12-14T09:46:32;5.28;;;3.20;;
82032;SDS011;71595;52.180;4.512;2023-12-14T09:48:59;10.98;;;4.03;;
82032;SDS011;71595;52.180;4.512;2023-12-14T09:51:26;9.50;;;4.05;;
82032;SDS011;71595;52.180;4.512;2023-12-14T09:53:52;8.00;;;3.60;;
82032;SDS011;71595;52.180;4.512;2023-12-14T09:56:45;6.68;;;3.10;;
82032;SDS011;71595;52.180;4.512;2023-12-14T09:59:11;8.88;;;4.07;;
82032;SDS011;71595;52.180;4.512;2023-12-14T10:01:37;8.05;;;3.75;;
82032;SDS011;71595;52.180;4.512;2023-12-14T10:06:35;8.25;;;3.80;;
82032;SDS011;71595;52.180;4.512;2023-12-14T10:11:26;7.55;;;3.58;;
82032;SDS011;71595;52.180;4.512;2023-12-14T10:13:52;7.07;;;3.63;;
82032;SDS011;71595;52.180;4.512;2023-12-14T10:16:27;9.35;;;4.75;;
82032;SDS011;71595;52.180;4.512;2023-12-14T10:18:55;12.32;;;4.72;;
82032;SDS011;71595;52.180;4.512;2023-12-14T10:21:20;8.85;;;4.38;;
82032;SDS011;71595;52.180;4.512;2023-12-14T10:23:46;7.95;;;3.95;;
82032;SDS011;71595;52.180;4.512;2023-12-14T10:26:11;7.93;;;4.25;;
82032;SDS011;71595;52.180;4.512;2023-12-14T10:28:39;9.18;;;4.00;;
82032;SDS011;71595;52.180;4.512;2023-12-14T10:31:05;9.88;;;4.75;;
82032;SDS011;71595;52.180;4.512;2023-12-14T10:33:30;9.52;;;4.38;;
82032;SDS011;71595;52.180;4.512;2023-12-14T10:35:56;8.65;;;4.43;;
82032;SDS011;71595;52.180;4.512;2023-12-14T10:38:21;8.75;;;3.95;;
82032;SDS011;71595;52.180;4.512;2023-12-14T10:40:50;9.80;;;4.90;;
82032;SDS011;71595;52.180;4.512;2023-12-14T10:43:18;10.95;;;4.95;;
82032;SDS011;71595;52.180;4.512;2023-12-14T10:45:44;8.48;;;4.10;;
82032;SDS011;71595;52.180;4.512;2023-12-14T10:48:12;7.57;;;4.80;;
82032;SDS011;71595;52.180;4.512;2023-12-14T10:50:38;7.47;;;4.35;;
82032;SDS011;71595;52.180;4.512;2023-12-14T10:53:07;12.55;;;4.43;;
82032;SDS011;71595;52.180;4.512;2023-12-14T10:55:37;9.35;;;4.55;;
82032;SDS011;71595;52.180;4.512;2023-12-14T10:58:07;9.73;;;4.88;;
82032;SDS011;71595;52.180;4.512;2023-12-14T11:00:34;8.88;;;4.43;;
82032;SDS011;71595;52.180;4.512;2023-12-14T11:02:59;8.10;;;4.03;;
82032;SDS011;71595;52.180;4.512;2023-12-14T11:05:26;6.05;;;3.60;;
82032;SDS011;71595;52.180;4.512;2023-12-14T11:08:01;9.18;;;3.92;;
82032;SDS011;71595;52.180;4.512;2023-12-14T11:10:59;7.43;;;3.47;;
82032;SDS011;71595;52.180;4.512;2023-12-14T11:13:35;9.27;;;4.25;;
82032;SDS011;71595;52.180;4.512;2023-12-14T11:16:01;11.02;;;5.03;;
82032;SDS011;71595;52.180;4.512;2023-12-14T11:20:59;8.32;;;4.10;;
82032;SDS011;71595;52.180;4.512;2023-12-14T11:28:21;8.38;;;3.72;;
82032;SDS011;71595;52.180;4.512;2023-12-14T11:33:13;7.03;;;3.50;;
82032;SDS011;71595;52.180;4.512;2023-12-14T11:35:39;6.53;;;3.75;;
82032;SDS011;71595;52.180;4.512;2023-12-14T11:40:47;9.98;;;3.50;;
82032;SDS011;71595;52.180;4.512;2023-12-14T11:43:14;9.48;;;3.90;;
82032;SDS011;71595;52.180;4.512;2023-12-14T11:45:40;7.78;;;3.83;;
82032;SDS011;71595;52.180;4.512;2023-12-14T11:48:07;8.43;;;4.10;;
82032;SDS011;71595;52.180;4.512;2023-12-14T11:50:35;8.32;;;4.35;;
82032;SDS011;71595;52.180;4.512;2023-12-14T11:53:01;7.03;;;3.95;;
82032;SDS011;71595;52.180;4.512;2023-12-14T11:55:28;9.38;;;4.07;;
82032;SDS011;71595;52.180;4.512;2023-12-14T11:57:55;7.85;;;4.40;;
82032;SDS011;71595;52.180;4.512;2023-12-14T12:00:28;10.00;;;3.97;;
82032;SDS011;71595;52.180;4.512;2023-12-14T12:05:42;8.70;;;3.85;;
82032;SDS011;71595;52.180;4.512;2023-12-14T12:08:11;8.75;;;4.45;;
82032;SDS011;71595;52.180;4.512;2023-12-14T12:10:38;6.60;;;3.97;;
82032;SDS011;71595;52.180;4.512;2023-12-14T12:13:06;11.27;;;4.90;;
82032;SDS011;71595;52.180;4.512;2023-12-14T12:15:33;9.82;;;4.88;;
82032;SDS011;71595;52.180;4.512;2023-12-14T12:18:10;9.57;;;3.72;;
82032;SDS011;71595;52.180;4.512;2023-12-14T12:20:37;7.50;;;3.95;;
82032;SDS011;71595;52.180;4.512;2023-12-14T12:23:03;8.45;;;4.40;;
82032;SDS011;71595;52.180;4.512;2023-12-14T12:25:29;8.93;;;4.10;;
82032;SDS011;71595;52.180;4.512;2023-12-14T12:27:56;7.47;;;3.72;;
82032;SDS011;71595;52.180;4.512;2023-12-14T12:30:22;11.73;;;4.25;;
82032;SDS011;71595;52.180;4.512;2023-12-14T12:32:48;8.25;;;4.07;;
82032;SDS011;71595;52.180;4.512;2023-12-14T12:35:16;8.82;;;3.92;;
82032;SDS011;71595;52.180;4.512;2023-12-14T12:37:41;7.00;;;3.63;;
82032;SDS011;71595;52.180;4.512;2023-12-14T12:40:07;9.95;;;4.57;;
82032;SDS011;71595;52.180;4.512;2023-12-14T12:42:33;9.13;;;4.05;;
82032;SDS011;71595;52.180;4.512;2023-12-14T12:47:24;7.70;;;4.43;;
82032;SDS011;71595;52.180;4.512;2023-12-14T12:49:49;9.77;;;5.43;;
82032;SDS011;71595;52.180;4.512;2023-12-14T12:52:15;10.07;;;4.70;;
82032;SDS011;71595;52.180;4.512;2023-12-14T12:54:40;11.77;;;5.00;;
82032;SDS011;71595;52.180;4.512;2023-12-14T12:57:06;8.02;;;4.28;;
82032;SDS011;71595;52.180;4.512;2023-12-14T12:59:31;9.05;;;3.97;;
82032;SDS011;71595;52.180;4.512;2023-12-14T13:01:57;10.40;;;4.60;;
82032;SDS011;71595;52.180;4.512;2023-12-14T13:04:23;13.80;;;5.72;;
82032;SDS011;71595;52.180;4.512;2023-12-14T13:06:48;9.18;;;5.05;;
82032;SDS011;71595;52.180;4.512;2023-12-14T13:11:41;7.70;;;3.88;;
82032;SDS011;71595;52.180;4.512;2023-12-14T13:16:35;9.65;;;4.25;;
82032;SDS011;71595;52.180;4.512;2023-12-14T13:19:02;10.05;;;4.15;;
82032;SDS011;71595;52.180;4.512;2023-12-14T13:23:54;8.90;;;4.20;;
82032;SDS011;71595;52.180;4.512;2023-12-14T13:26:21;11.15;;;4.90;;
82032;SDS011;71595;52.180;4.512;2023-12-14T13:28:47;12.43;;;4.65;;
82032;SDS011;71595;52.180;4.512;2023-12-14T13:31:12;7.75;;;4.03;;
82032;SDS011;71595;52.180;4.512;2023-12-14T13:33:37;9.63;;;4.53;;
82032;SDS011;71595;52.180;4.512;2023-12-14T13:36:03;8.63;;;4.95;;
82032;SDS011;71595;52.180;4.512;2023-12-14T13:38:28;7.75;;;4.65;;
82032;SDS011;71595;52.180;4.512;2023-12-14T13:40:54;11.07;;;5.07;;
82032;SDS011;71595;52.180;4.512;2023-12-14T13:45:45;10.90;;;4.70;;
82032;SDS011;71595;52.180;4.512;2023-12-14T13:50:36;10.00;;;4.53;;
82032;SDS011;71595;52.180;4.512;2023-12-14T13:55:27;11.10;;;4.97;;
82032;SDS011;71595;52.180;4.512;2023-12-14T14:00:18;8.65;;;4.43;;
82032;SDS011;71595;52.180;4.512;2023-12-14T14:02:46;9.20;;;4.28;;
82032;SDS011;71595;52.180;4.512;2023-12-14T14:05:12;9.80;;;4.70;;
82032;SDS011;71595;52.180;4.512;2023-12-14T14:07:37;11.15;;;4.70;;
82032;SDS011;71595;52.180;4.512;2023-12-14T14:10:02;8.45;;;4.55;;
82032;SDS011;71595;52.180;4.512;2023-12-14T14:12:28;13.18;;;5.63;;
82032;SDS011;71595;52.180;4.512;2023-12-14T14:17:19;9.07;;;4.43;;
82032;SDS011;71595;52.180;4.512;2023-12-14T14:19:44;9.50;;;5.15;;
82032;SDS011;71595;52.180;4.512;2023-12-14T14:22:10;10.50;;;5.18;;
82032;SDS011;71595;52.180;4.512;2023-12-14T14:24:35;7.85;;;4.30;;
82032;SDS011;71595;52.180;4.512;2023-12-14T14:27:00;9.93;;;4.80;;
82032;SDS011;71595;52.180;4.512;2023-12-14T14:31:51;8.77;;;4.30;;
82032;SDS011;71595;52.180;4.512;2023-12-14T14:34:16;8.05;;;5.25;;
82032;SDS011;71595;52.180;4.512;2023-12-14T14:36:42;10.38;;;4.85;;
82032;SDS011;71595;52.180;4.512;2023-12-14T14:39:09;9.73;;;4.85;;
82032;SDS011;71595;52.180;4.512;2023-12-14T14:41:35;8.50;;;4.43;;
82032;SDS011;71595;52.180;4.512;2023-12-14T14:46:26;8.73;;;3.80;;
82032;SDS011;71595;52.180;4.512;2023-12-14T14:48:51;8.63;;;5.03;;
82032;SDS011;71595;52.180;4.512;2023-12-14T14:51:16;7.53;;;4.22;;
82032;SDS011;71595;52.180;4.512;2023-12-14T14:53:42;10.88;;;5.18;;
82032;SDS011;71595;52.180;4.512;2023-12-14T14:56:08;9.32;;;4.70;;
82032;SDS011;71595;52.180;4.512;2023-12-14T14:58:34;11.25;;;4.18;;
82032;SDS011;71595;52.180;4.512;2023-12-14T15:03:25;10.05;;;4.45;;
82032;SDS011;71595;52.180;4.512;2023-12-14T15:08:15;7.85;;;3.90;;
82032;SDS011;71595;52.180;4.512;2023-12-14T15:13:06;8.13;;;4.00;;
82032;SDS011;71595;52.180;4.512;2023-12-14T15:15:31;8.95;;;4.30;;
82032;SDS011;71595;52.180;4.512;2023-12-14T15:17:57;9.63;;;4.03;;
82032;SDS011;71595;52.180;4.512;2023-12-14T15:20:22;9.18;;;3.83;;
82032;SDS011;71595;52.180;4.512;2023-12-14T15:22:48;7.07;;;3.88;;
82032;SDS011;71595;52.180;4.512;2023-12-14T15:25:13;8.88;;;3.97;;
82032;SDS011;71595;52.180;4.512;2023-12-14T15:27:41;8.27;;;3.67;;
82032;SDS011;71595;52.180;4.512;2023-12-14T15:32:34;9.95;;;3.40;;
82032;SDS011;71595;52.180;4.512;2023-12-14T15:37:25;5.47;;;2.70;;
82032;SDS011;71595;52.180;4.512;2023-12-14T15:39:50;7.53;;;2.25;;
82032;SDS011;71595;52.180;4.512;2023-12-14T15:42:17;3.72;;;2.00;;
82032;SDS011;71595;52.180;4.512;2023-12-14T15:47:09;4.63;;;1.13;;
82032;SDS011;71595;52.180;4.512;2023-12-14T15:49:38;5.40;;;1.20;;
82032;SDS011;71595;52.180;4.512;2023-12-14T15:54:29;3.55;;;1.30;;
82032;SDS011;71595;52.180;4.512;2023-12-14T15:56:54;6.00;;;1.05;;
82032;SDS011;71595;52.180;4.512;2023-12-14T16:01:45;6.03;;;1.03;;
82032;SDS011;71595;52.180;4.512;2023-12-14T16:04:10;2.80;;;0.93;;
82032;SDS011;71595;52.180;4.512;2023-12-14T16:06:37;4.35;;;1.05;;
82032;SDS011;71595;52.180;4.512;2023-12-14T16:11:28;3.78;;;0.90;;
82032;SDS011;71595;52.180;4.512;2023-12-14T16:13:53;4.03;;;1.27;;
82032;SDS011;71595;52.180;4.512;2023-12-14T16:18:45;2.92;;;1.00;;
82032;SDS011;71595;52.180;4.512;2023-12-14T16:23:35;3.90;;;1.35;;
82032;SDS011;71595;52.180;4.512;2023-12-14T16:26:03;5.78;;;1.10;;
82032;SDS011;71595;52.180;4.512;2023-12-14T16:28:29;4.07;;;1.55;;
82032;SDS011;71595;52.180;4.512;2023-12-14T16:33:20;2.90;;;1.10;;
82032;SDS011;71595;52.180;4.512;2023-12-14T16:35:45;5.22;;;1.35;;
82032;SDS011;71595;52.180;4.512;2023-12-14T16:40:36;8.17;;;1.37;;
82032;SDS011;71595;52.180;4.512;2023-12-14T16:43:01;2.90;;;1.20;;
82032;SDS011;71595;52.180;4.512;2023-12-14T16:47:52;3.27;;;1.07;;
82032;SDS011;71595;52.180;4.512;2023-12-14T16:50:17;2.63;;;0.93;;
82032;SDS011;71595;52.180;4.512;2023-12-14T16:55:08;4.37;;;1.10;;
82032;SDS011;71595;52.180;4.512;2023-12-14T16:57:34;3.10;;;1.10;;
82032;SDS011;71595;52.180;4.512;2023-12-14T17:00:00;5.07;;;1.42;;
82032;SDS011;71595;52.180;4.512;2023-12-14T17:04:51;4.57;;;1.42;;
82032;SDS011;71595;52.180;4.512;2023-12-14T17:07:16;4.75;;;1.60;;